Sherando, Virginia
Current Conditions -  °F | °C
As of 8:15 PM on Saturday 20 Dec 2014 (Local Time) from KW13 Reporting Station
Overcast Overcast  
Wind Chill: 33°   Ceiling: 7000
Heat Index: 33°   Visibility: 10mi
Dew Point: 24°   Wind: 3mph
Humidity: 68%   Direction: 80°E
Pressure: 30.22"   Gusts: NA
Location:  37.9643°N, 78.9678°W
Report Text: KW13 210115Z AUTO 08003KT 10SM OVC070 01/M05 A3022 RMK AO1 T00051047
Loading
Personal Weather Stations






























Interactive Weather Map New forecast layout! Learn more

10-Day Weather Forecast

Advertisements
Track Severe Weather on mobile